Time;durP1;ratioP1;P1;durP2;ratioP2;P2;SDS_P1;SDS_P2;PMS_P1;PMS_P2;Temp;Humidity;BMP_temperature;BMP_pressure;BME280_temperature;BME280_humidity;BME280_pressure;Samples;Min_cycle;Max_cycle;Signal;HPM_P1;HPM_P2
2020/12/06 00:01:42;;;;;;;26.65;13.70;;;1.60;99.90;;;;;;6136555;23;20489;-83
2020/12/06 00:04:08;;;;;;;35.70;18.20;;;1.60;99.90;;;;;;6162690;23;20005;-83
2020/12/06 00:06:35;;;;;;;37.85;18.95;;;1.60;99.90;;;;;;6161455;23;20046;-83
2020/12/06 00:09:03;;;;;;;35.50;18.85;;;1.50;99.90;;;;;;6133653;23;20001;-83
2020/12/06 00:11:28;;;;;;;42.60;20.42;;;1.60;99.90;;;;;;6137249;23;20002;-83
2020/12/06 00:13:54;;;;;;;36.10;18.23;;;1.50;99.90;;;;;;6139662;23;20016;-83
2020/12/06 00:16:20;;;;;;;30.50;15.85;;;1.60;99.90;;;;;;6140354;23;20010;-83
2020/12/06 00:18:51;;;;;;;28.48;16.35;;;1.60;99.90;;;;;;6142995;23;20060;-84
2020/12/06 00:21:18;;;;;;;29.38;16.08;;;1.60;99.90;;;;;;6168123;23;20010;-83
2020/12/06 00:23:45;;;;;;;29.98;16.23;;;1.70;99.90;;;;;;6139912;23;20010;-83
2020/12/06 00:26:11;;;;;;;28.65;16.23;;;1.70;99.90;;;;;;6164878;23;20005;-83
2020/12/06 00:28:37;;;;;;;31.63;17.55;;;1.70;99.90;;;;;;6161536;23;20008;-82
2020/12/06 00:31:03;;;;;;;34.80;17.40;;;1.70;99.90;;;;;;6135517;23;20017;-83
2020/12/06 00:33:29;;;;;;;40.05;19.58;;;1.70;99.90;;;;;;6165810;23;20005;-83
2020/12/06 00:35:55;;;;;;;30.33;15.90;;;1.70;99.90;;;;;;6167503;23;20076;-82
2020/12/06 00:38:21;;;;;;;34.35;19.02;;;1.70;99.90;;;;;;6167620;23;20504;-82
2020/12/06 00:40:47;;;;;;;39.67;18.92;;;1.70;99.90;;;;;;6137530;23;20014;-83
2020/12/06 00:43:13;;;;;;;30.42;16.80;;;1.70;99.90;;;;;;6166184;23;20002;-83
2020/12/06 00:45:39;;;;;;;28.70;16.35;;;1.80;99.90;;;;;;6168069;23;20001;-84
2020/12/06 00:48:04;;;;;;;30.05;15.13;;;1.80;99.90;;;;;;6140216;23;20005;-84
2020/12/06 03:10:21;;;;;;;30.05;16.30;;;1.30;99.90;;;;;;6151716;23;20026;-86
2020/12/06 03:12:47;;;;;;;27.05;15.35;;;1.20;99.90;;;;;;6103328;23;20076;-86
2020/12/06 03:15:19;;;;;;;28.63;15.15;;;1.20;99.90;;;;;;6103686;23;20010;-85
2020/12/06 03:17:48;;;;;;;29.13;15.35;;;1.20;99.90;;;;;;6098130;23;20070;-85
2020/12/06 03:20:15;;;;;;;24.17;13.38;;;1.20;99.90;;;;;;6103045;23;20509;-85
2020/12/06 03:22:41;;;;;;;27.33;14.70;;;1.20;99.90;;;;;;6102992;23;20017;-86
2020/12/06 03:25:27;;;;;;;25.83;13.82;;;1.20;99.90;;;;;;6103522;23;20010;-87
2020/12/06 03:27:53;;;;;;;27.10;14.77;;;1.20;99.90;;;;;;6103962;23;20012;-84
2020/12/06 03:30:19;;;;;;;34.60;19.83;;;1.10;99.90;;;;;;6105495;23;20033;-87
2020/12/06 03:32:44;;;;;;;35.40;20.45;;;1.10;99.90;;;;;;6131243;23;20053;-86
2020/12/06 03:35:10;;;;;;;43.17;21.70;;;1.10;99.90;;;;;;6131335;23;20002;-86
2020/12/06 03:37:36;;;;;;;35.90;19.95;;;1.10;99.90;;;;;;6104359;23;20350;-86
2020/12/06 03:40:03;;;;;;;29.85;15.30;;;1.10;99.90;;;;;;6130337;23;20381;-87
2020/12/06 03:42:29;;;;;;;28.13;14.35;;;1.10;99.90;;;;;;6130252;23;20002;-86
2020/12/06 03:44:57;;;;;;;19.23;11.80;;;1.10;99.90;;;;;;6129651;23;20002;-86
2020/12/06 03:47:23;;;;;;;22.73;12.50;;;1.10;99.90;;;;;;6104033;23;20033;-87
2020/12/06 03:49:49;;;;;;;25.67;14.32;;;1.20;99.90;;;;;;6141459;23;20002;-85
2020/12/06 03:52:15;;;;;;;31.08;16.60;;;1.20;99.90;;;;;;6102913;23;20005;-86
2020/12/06 03:54:41;;;;;;;32.45;17.10;;;1.20;99.90;;;;;;6103163;23;20014;-87
2020/12/06 03:57:07;;;;;;;45.15;23.92;;;1.20;99.90;;;;;;6102712;23;20010;-86
2020/12/06 03:59:32;;;;;;;35.65;19.85;;;1.20;99.90;;;;;;6103715;23;20010;-86
2020/12/06 04:01:58;;;;;;;46.20;24.08;;;1.30;99.90;;;;;;6129698;23;20006;-85
2020/12/06 04:04:24;;;;;;;33.83;19.30;;;1.30;99.90;;;;;;6130424;23;20025;-87
2020/12/06 04:06:49;;;;;;;45.80;22.85;;;1.30;99.90;;;;;;6118911;23;20021;-85
2020/12/06 04:09:15;;;;;;;44.67;22.90;;;1.20;99.90;;;;;;6142405;23;19998;-86
2020/12/06 04:11:41;;;;;;;47.53;24.20;;;1.20;99.90;;;;;;6135316;23;20029;-86
2020/12/06 04:14:06;;;;;;;50.38;24.67;;;1.30;99.90;;;;;;6133304;23;20016;-85
2020/12/06 04:16:32;;;;;;;57.42;27.58;;;1.20;99.90;;;;;;6168892;23;20017;-86
2020/12/06 04:18:58;;;;;;;44.85;22.92;;;1.10;99.90;;;;;;6136130;23;20076;-86
2020/12/06 04:21:24;;;;;;;39.33;20.30;;;1.10;99.90;;;;;;6132911;23;20484;-86
2020/12/06 04:23:50;;;;;;;43.75;21.08;;;1.10;99.90;;;;;;6149598;23;20059;-84
2020/12/06 04:26:16;;;;;;;49.92;26.13;;;1.10;99.90;;;;;;6157362;23;20010;-85
2020/12/06 04:28:46;;;;;;;48.80;24.38;;;1.10;99.90;;;;;;6182583;23;20013;-84
2020/12/06 04:31:15;;;;;;;51.08;24.88;;;1.10;99.90;;;;;;6157788;23;20017;-84
2020/12/06 04:33:43;;;;;;;58.40;26.77;;;1.00;99.90;;;;;;6182119;23;19994;-84
2020/12/06 04:36:11;;;;;;;69.00;29.80;;;1.00;99.90;;;;;;6183130;23;19990;-85
2020/12/06 04:38:37;;;;;;;61.80;26.92;;;1.00;99.90;;;;;;6152631;23;20021;-87
2020/12/06 04:41:05;;;;;;;56.28;24.35;;;1.00;99.90;;;;;;6160717;23;20129;-85
2020/12/06 04:43:38;;;;;;;85.20;32.80;;;1.00;99.90;;;;;;6159723;23;20004;-86
2020/12/06 04:46:04;;;;;;;57.47;24.85;;;1.00;99.90;;;;;;6134750;23;20005;-86
2020/12/06 04:48:48;;;;;;;59.30;28.52;;;1.00;99.90;;;;;;6162109;23;20029;-84
2020/12/06 04:51:19;;;;;;;50.50;24.67;;;1.00;99.90;;;;;;6159829;23;20008;-87
2020/12/06 04:53:59;;;;;;;62.75;24.58;;;1.00;99.90;;;;;;6158387;23;20365;-86
2020/12/06 04:56:28;;;;;;;105.53;35.90;;;1.00;99.90;;;;;;6158871;23;20009;-87
2020/12/06 04:59:01;;;;;;;99.28;37.38;;;1.00;99.90;;;;;;6157953;23;20012;-86
2020/12/06 05:01:29;;;;;;;;;;;1.00;99.90;;;;;;6131700;23;20013;-85
2020/12/06 05:03:59;;;;;;;94.65;33.90;;;1.00;99.90;;;;;;6156965;23;19955;-86
2020/12/06 05:06:28;;;;;;;70.28;28.08;;;1.00;99.90;;;;;;6130983;23;20010;-86
2020/12/06 05:08:56;;;;;;;79.00;31.33;;;1.00;99.90;;;;;;6131222;23;20461;-85
2020/12/06 05:11:22;;;;;;;66.40;27.25;;;1.00;99.90;;;;;;6157439;23;20001;-86
2020/12/06 05:13:47;;;;;;;81.20;32.40;;;1.10;99.90;;;;;;6131610;23;20009;-86
2020/12/06 05:16:15;;;;;;;82.95;32.83;;;1.10;99.90;;;;;;6156895;23;20008;-85
2020/12/06 05:18:40;;;;;;;76.45;31.30;;;1.10;99.90;;;;;;6131875;23;20006;-85
2020/12/06 05:21:06;;;;;;;93.53;37.03;;;1.20;99.90;;;;;;6157832;23;20080;-85
2020/12/06 05:23:32;;;;;;;107.05;37.80;;;1.20;99.90;;;;;;6157519;23;20001;-85
2020/12/06 05:25:58;;;;;;;82.32;33.00;;;1.20;99.90;;;;;;6131127;23;20430;-86
2020/12/06 05:28:27;;;;;;;97.10;36.00;;;1.20;99.90;;;;;;6131328;23;20287;-86
2020/12/06 05:30:54;;;;;;;87.63;33.97;;;1.20;99.90;;;;;;6131635;23;20122;-85
2020/12/06 05:33:20;;;;;;;78.15;32.25;;;1.20;99.90;;;;;;6132372;23;20009;-88
2020/12/06 05:35:46;;;;;;;90.13;35.60;;;1.30;99.90;;;;;;6132175;23;20006;-87
2020/12/06 05:38:14;;;;;;;84.82;35.05;;;1.20;99.90;;;;;;6158341;23;20024;-86
2020/12/06 05:40:45;;;;;;;84.65;33.53;;;1.20;99.90;;;;;;6157609;23;20008;-86
2020/12/06 05:43:11;;;;;;;62.72;28.98;;;1.20;99.90;;;;;;6131201;23;20385;-86
2020/12/06 05:45:37;;;;;;;79.13;31.67;;;1.20;99.90;;;;;;6131858;23;20029;-88
2020/12/06 05:48:05;;;;;;;71.78;31.17;;;1.20;99.90;;;;;;6131366;23;20002;-86
2020/12/06 05:50:32;;;;;;;56.20;25.40;;;1.10;99.90;;;;;;6130853;23;20005;-86
2020/12/06 05:52:59;;;;;;;66.72;30.27;;;1.10;99.90;;;;;;6130800;23;20033;-86
2020/12/06 05:55:25;;;;;;;60.08;28.17;;;1.10;99.90;;;;;;6130712;23;20434;-86
2020/12/06 05:57:52;;;;;;;54.08;23.60;;;1.10;99.90;;;;;;6130305;23;20080;-86
2020/12/06 06:00:18;;;;;;;66.00;29.52;;;1.10;99.90;;;;;;6131076;23;20002;-86
2020/12/06 06:02:45;;;;;;;58.47;26.35;;;1.10;99.90;;;;;;6131472;23;20005;-86
2020/12/06 06:05:17;;;;;;;54.80;23.08;;;1.10;99.90;;;;;;6162383;23;20008;-86
2020/12/06 06:07:46;;;;;;;50.80;24.88;;;1.20;99.90;;;;;;6135008;23;20184;-86
2020/12/06 06:10:17;;;;;;;49.67;23.48;;;1.20;99.90;;;;;;6133203;23;20088;-86
2020/12/06 06:12:44;;;;;;;52.80;23.55;;;1.10;99.90;;;;;;6133652;23;20093;-86
2020/12/06 06:15:10;;;;;;;51.58;23.98;;;1.10;99.90;;;;;;6162091;23;20298;-87
2020/12/06 06:17:36;;;;;;;63.10;25.83;;;1.10;99.90;;;;;;6161828;23;20002;-86
2020/12/06 06:20:02;;;;;;;71.38;29.70;;;1.10;99.90;;;;;;6161649;23;20001;-86
2020/12/06 06:22:42;;;;;;;59.70;24.80;;;1.10;99.90;;;;;;6159508;23;20002;-87
2020/12/06 06:25:09;;;;;;;60.85;28.17;;;1.00;99.90;;;;;;6160034;23;20006;-87
2020/12/06 06:27:36;;;;;;;62.45;26.48;;;1.10;99.90;;;;;;6133873;23;20008;-86
2020/12/06 06:30:09;;;;;;;63.38;26.85;;;1.00;99.90;;;;;;6160809;23;20430;-86
2020/12/06 06:32:36;;;;;;;65.50;29.00;;;1.10;99.90;;;;;;6166564;23;20504;-87
2020/12/06 06:35:05;;;;;;;71.78;30.02;;;1.10;99.90;;;;;;6134629;23;20036;-87
2020/12/06 06:37:32;;;;;;;89.18;36.25;;;1.10;99.90;;;;;;6134723;23;20005;-87
2020/12/06 06:40:04;;;;;;;75.53;31.38;;;1.10;99.90;;;;;;6135331;23;20044;-88
2020/12/06 06:42:31;;;;;;;77.45;31.95;;;1.20;99.90;;;;;;6132957;23;20009;-86
2020/12/06 06:45:09;;;;;;;82.32;33.05;;;1.20;99.90;;;;;;6146365;23;20037;-86
2020/12/06 06:47:41;;;;;;;74.47;29.25;;;1.20;99.90;;;;;;6161563;23;19997;-87
2020/12/06 06:52:36;;;;;;;68.40;28.42;;;1.20;99.90;;;;;;6188248;23;20236;-81
2020/12/06 06:55:04;;;;;;;86.97;31.90;;;1.20;99.90;;;;;;6187364;23;20001;-83
2020/12/06 06:57:31;;;;;;;92.05;34.17;;;1.20;99.90;;;;;;6188370;23;20052;-81
2020/12/06 06:59:59;;;;;;;90.43;35.05;;;1.20;99.90;;;;;;6187733;23;20365;-80
2020/12/06 07:02:32;;;;;;;88.97;36.10;;;1.20;99.90;;;;;;6188310;23;20004;-80
2020/12/06 07:04:59;;;;;;;82.22;31.65;;;1.20;99.90;;;;;;6160688;23;20013;-82
2020/12/06 07:07:40;;;;;;;77.43;32.35;;;1.20;99.90;;;;;;6161596;23;20005;-80
2020/12/06 07:10:07;;;;;;;86.68;34.05;;;1.20;99.90;;;;;;6188877;23;20325;-82
2020/12/06 07:12:55;;;;;;;91.82;35.90;;;1.20;99.90;;;;;;6187998;23;20005;-81
2020/12/06 07:15:23;;;;;;;84.25;34.00;;;1.20;99.90;;;;;;6161491;23;20001;-81
2020/12/06 07:17:52;;;;;;;74.40;30.88;;;1.30;99.90;;;;;;6162281;23;20285;-81
2020/12/06 07:20:19;;;;;;;74.10;30.88;;;1.30;99.90;;;;;;6189032;23;20057;-82
2020/12/06 07:22:46;;;;;;;80.80;34.15;;;1.30;99.90;;;;;;6189282;23;20116;-82
2020/12/06 07:25:13;;;;;;;77.07;31.77;;;1.30;99.90;;;;;;6189862;23;20011;-81
2020/12/06 07:27:39;;;;;;;81.07;31.05;;;1.40;99.90;;;;;;6189718;23;20004;-80
2020/12/06 07:30:09;;;;;;;94.32;35.33;;;1.40;99.90;;;;;;6164601;23;20001;-81
2020/12/06 07:32:36;;;;;;;83.28;31.80;;;1.50;99.90;;;;;;6190695;23;20060;-82
2020/12/06 07:35:14;;;;;;;95.63;33.35;;;1.50;99.90;;;;;;6197718;23;20001;-79
2020/12/06 07:37:40;;;;;;;95.22;33.22;;;1.50;99.90;;;;;;6179074;23;20070;-81
2020/12/06 07:40:07;;;;;;;100.85;34.50;;;1.50;99.90;;;;;;6170764;23;20062;-81
2020/12/06 07:42:36;;;;;;;103.25;31.88;;;1.60;99.90;;;;;;6165116;23;20509;-82
2020/12/06 07:45:04;;;;;;;95.70;29.85;;;1.60;99.90;;;;;;6197070;23;20029;-81
2020/12/06 07:47:30;;;;;;;118.95;34.40;;;1.60;99.90;;;;;;6192489;23;20001;-80
2020/12/06 07:49:58;;;;;;;103.20;32.22;;;1.60;99.90;;;;;;6192750;23;20004;-82
2020/12/06 07:52:29;;;;;;;107.85;31.02;;;1.70;99.90;;;;;;6167354;23;20036;-82
2020/12/06 07:55:01;;;;;;;94.93;29.15;;;1.70;99.90;;;;;;6166706;23;20012;-81
2020/12/06 07:57:36;;;;;;;88.20;27.50;;;1.80;99.90;;;;;;6166240;23;20005;-79
2020/12/06 08:00:09;;;;;;;90.18;29.25;;;1.80;99.90;;;;;;6191911;23;20001;-80
2020/12/06 08:02:36;;;;;;;92.35;28.05;;;1.80;99.90;;;;;;6192015;23;20005;-80
2020/12/06 08:05:03;;;;;;;83.85;25.95;;;1.90;99.90;;;;;;6164295;23;20016;-82
2020/12/06 08:08:11;;;;;;;78.30;26.55;;;1.90;99.90;;;;;;6165469;23;20100;-81
2020/12/06 08:10:41;;;;;;;76.05;26.27;;;2.00;99.90;;;;;;6172985;23;20001;-81
2020/12/06 08:13:13;;;;;;;57.80;21.00;;;2.00;99.90;;;;;;6167042;23;20103;-80
2020/12/06 08:15:39;;;;;;;64.20;24.10;;;2.10;99.90;;;;;;6164869;23;20001;-80
2020/12/06 08:18:15;;;;;;;61.30;23.40;;;2.10;99.90;;;;;;6164683;23;20012;-85
2020/12/06 08:20:55;;;;;;;60.50;23.60;;;2.20;99.90;;;;;;6164910;23;20008;-82
2020/12/06 08:23:36;;;;;;;44.85;17.58;;;2.20;99.90;;;;;;6165568;23;19997;-83
2020/12/06 08:26:02;;;;;;;46.88;18.05;;;2.30;99.90;;;;;;6164626;23;20005;-80
2020/12/06 08:28:29;;;;;;;44.25;18.42;;;2.30;99.90;;;;;;6166691;23;20609;-82
2020/12/06 08:30:55;;;;;;;42.88;17.73;;;2.40;99.90;;;;;;6166195;23;20050;-82
2020/12/06 08:33:25;;;;;;;36.25;16.58;;;2.50;99.90;;;;;;6166548;23;20068;-81
2020/12/06 08:35:53;;;;;;;38.22;16.67;;;2.50;99.90;;;;;;6173730;23;20019;-82
2020/12/06 08:38:24;;;;;;;34.78;16.02;;;2.40;99.90;;;;;;6196528;23;20001;-83
2020/12/06 08:40:59;;;;;;;39.20;17.50;;;2.50;99.90;;;;;;6192128;23;20079;-79
2020/12/06 08:43:43;;;;;;;37.20;15.93;;;2.60;99.90;;;;;;6169284;23;20020;-80
2020/12/06 08:46:10;;;;;;;25.55;12.60;;;2.60;99.90;;;;;;6195217;23;20007;-81
2020/12/06 08:48:36;;;;;;;28.58;12.07;;;2.60;99.90;;;;;;6180073;23;20061;-88
2020/12/06 08:51:02;;;;;;;31.17;12.75;;;2.70;99.90;;;;;;6185354;23;20016;-88
2020/12/06 08:53:28;;;;;;;34.80;15.73;;;2.80;99.90;;;;;;6173048;23;20013;-82
2020/12/06 08:55:53;;;;;;;31.45;14.68;;;2.80;99.90;;;;;;6165969;23;19997;-83
2020/12/06 08:58:29;;;;;;;38.10;16.30;;;2.80;99.90;;;;;;6164421;23;20396;-85
2020/12/06 09:01:04;;;;;;;32.30;13.43;;;2.80;99.90;;;;;;6166161;23;20071;-83
2020/12/06 09:03:29;;;;;;;35.85;16.17;;;2.70;99.90;;;;;;6191747;23;20016;-83
2020/12/06 09:05:55;;;;;;;26.88;13.98;;;2.70;99.90;;;;;;6190924;23;20256;-84
2020/12/06 09:08:21;;;;;;;25.02;11.63;;;2.70;99.90;;;;;;6164184;23;20008;-81
2020/12/06 09:10:46;;;;;;;27.95;13.43;;;2.80;99.90;;;;;;6165054;23;20005;-82
2020/12/06 09:13:12;;;;;;;31.35;15.00;;;3.00;99.90;;;;;;6163910;23;20028;-82
2020/12/06 09:15:38;;;;;;;29.80;14.15;;;3.00;99.90;;;;;;6164940;23;20017;-82
2020/12/06 09:18:03;;;;;;;33.67;15.35;;;3.00;99.90;;;;;;6168400;23;20093;-84
2020/12/06 09:20:29;;;;;;;30.85;14.82;;;3.00;99.90;;;;;;6169302;23;20009;-82
2020/12/06 09:22:55;;;;;;;28.70;14.20;;;3.10;99.90;;;;;;6166914;23;20001;-83
2020/12/06 09:25:20;;;;;;;31.88;16.48;;;3.10;99.90;;;;;;6165654;23;20401;-83
2020/12/06 09:27:46;;;;;;;36.58;16.75;;;3.20;99.90;;;;;;6165269;23;19997;-81
2020/12/06 09:30:24;;;;;;;31.98;17.10;;;3.30;99.90;;;;;;6165110;23;19997;-81
2020/12/06 09:32:58;;;;;;;28.10;12.93;;;3.40;99.90;;;;;;6162469;23;20005;-80
2020/12/06 09:35:27;;;;;;;30.27;15.15;;;3.40;99.90;;;;;;6162335;23;20021;-82
2020/12/06 09:38:00;;;;;;;25.70;13.15;;;3.40;99.90;;;;;;6162704;23;20382;-81
2020/12/06 09:40:37;;;;;;;26.38;13.27;;;3.50;99.90;;;;;;6163088;23;20043;-79
2020/12/06 09:43:03;;;;;;;26.40;13.43;;;3.50;99.90;;;;;;6164113;23;20024;-82
2020/12/06 09:45:28;;;;;;;27.63;14.35;;;3.50;99.90;;;;;;6191297;23;20027;-82
2020/12/06 09:47:54;;;;;;;22.38;13.50;;;3.60;99.90;;;;;;6190504;23;20048;-82
2020/12/06 09:50:20;;;;;;;21.60;11.30;;;3.70;99.90;;;;;;6163374;23;20016;-81
2020/12/06 09:52:46;;;;;;;24.02;11.43;;;3.70;99.20;;;;;;6193085;23;20009;-81
2020/12/06 09:55:18;;;;;;;22.85;11.15;;;3.70;99.60;;;;;;6165416;23;20005;-81
2020/12/06 09:57:44;;;;;;;19.02;10.85;;;3.70;99.50;;;;;;6165398;23;20001;-80
2020/12/06 10:00:10;;;;;;;18.52;9.77;;;3.70;99.60;;;;;;6165824;23;20013;-80
2020/12/06 10:02:38;;;;;;;18.17;9.77;;;3.90;99.70;;;;;;6166580;23;20009;-83
2020/12/06 10:05:04;;;;;;;20.15;11.15;;;3.90;98.90;;;;;;6167798;23;20437;-82
2020/12/06 10:07:30;;;;;;;17.88;9.93;;;4.00;99.10;;;;;;6167289;23;20039;-81
2020/12/06 10:09:55;;;;;;;22.40;10.27;;;4.20;99.20;;;;;;6166288;23;20325;-82
2020/12/06 10:12:21;;;;;;;20.48;10.30;;;4.30;97.80;;;;;;6165389;23;20001;-82
2020/12/06 10:14:47;;;;;;;18.75;9.45;;;4.30;97.20;;;;;;6165498;23;20012;-84
2020/12/06 10:17:13;;;;;;;17.75;9.23;;;4.20;97.80;;;;;;6164908;23;20514;-83
2020/12/06 10:19:38;;;;;;;18.98;9.90;;;4.20;97.80;;;;;;6165354;23;20005;-82
2020/12/06 10:22:04;;;;;;;18.73;9.35;;;4.20;98.40;;;;;;6164178;23;20009;-82
2020/12/06 10:24:30;;;;;;;17.60;8.90;;;4.40;98.90;;;;;;6190501;23;20009;-81
2020/12/06 10:26:56;;;;;;;14.85;8.80;;;4.50;98.20;;;;;;6164077;23;20005;-82
2020/12/06 10:29:23;;;;;;;15.73;7.63;;;4.70;96.80;;;;;;6191248;23;20004;-82
2020/12/06 10:31:53;;;;;;;14.93;8.55;;;4.80;96.70;;;;;;6164144;23;20001;-80
2020/12/06 10:34:20;;;;;;;12.15;6.90;;;4.90;96.30;;;;;;6190967;23;20455;-81
2020/12/06 10:36:50;;;;;;;16.65;9.23;;;5.20;96.40;;;;;;6190345;23;20067;-82
2020/12/06 10:39:16;;;;;;;15.63;8.77;;;5.30;94.70;;;;;;6191037;23;20004;-83
2020/12/06 10:41:42;;;;;;;12.10;6.60;;;5.40;93.90;;;;;;6190667;23;20005;-82
2020/12/06 10:44:08;;;;;;;11.82;6.60;;;5.40;93.50;;;;;;6164008;23;20020;-81
2020/12/06 10:46:33;;;;;;;14.32;7.50;;;5.40;93.70;;;;;;6189990;23;20063;-80
2020/12/06 10:49:00;;;;;;;12.55;7.10;;;5.50;93.30;;;;;;6165049;23;20071;-84
2020/12/06 10:51:25;;;;;;;13.10;7.43;;;5.60;92.90;;;;;;6165855;23;20009;-81
2020/12/06 10:53:51;;;;;;;10.93;6.80;;;5.50;93.60;;;;;;6170025;23;20008;-81
2020/12/06 10:56:19;;;;;;;13.05;8.15;;;;;;;;;;6182083;23;20012;-84
2020/12/06 10:58:45;;;;;;;14.43;8.23;;;5.90;93.30;;;;;;6173120;23;20267;-82
2020/12/06 11:01:11;;;;;;;14.20;8.13;;;;;;;;;;6189769;23;20005;-82
2020/12/06 11:03:37;;;;;;;12.82;7.15;;;5.80;91.50;;;;;;6189404;23;20080;-82
2020/12/06 11:06:02;;;;;;;14.27;7.78;;;5.70;92.20;;;;;;6189112;23;20436;-81
2020/12/06 11:08:28;;;;;;;14.40;7.60;;;5.80;92.60;;;;;;6190444;23;19997;-81
2020/12/06 11:10:54;;;;;;;14.90;7.40;;;5.80;92.70;;;;;;6189874;23;20009;-80
2020/12/06 11:13:19;;;;;;;14.10;7.47;;;5.80;92.70;;;;;;6192113;23;20091;-81
2020/12/06 11:15:45;;;;;;;15.10;8.02;;;5.60;92.60;;;;;;6165330;23;20009;-81
2020/12/06 11:18:11;;;;;;;13.07;7.85;;;5.40;93.00;;;;;;6192302;23;20448;-81
2020/12/06 11:20:36;;;;;;;14.93;8.75;;;5.30;93.60;;;;;;6164941;23;20429;-81
2020/12/06 11:23:02;;;;;;;15.95;8.55;;;5.20;94.20;;;;;;6164548;23;20430;-80
2020/12/06 11:25:28;;;;;;;16.67;8.57;;;5.10;94.70;;;;;;6191053;23;20001;-81
2020/12/06 11:27:54;;;;;;;17.63;9.40;;;4.90;95.30;;;;;;6190135;23;20143;-79
2020/12/06 11:30:19;;;;;;;17.05;9.15;;;4.90;95.50;;;;;;6163133;23;20104;-82
2020/12/06 11:32:45;;;;;;;16.90;9.43;;;4.90;95.90;;;;;;6190662;23;20103;-79
2020/12/06 11:35:11;;;;;;;20.10;9.73;;;4.80;96.00;;;;;;6190074;23;20001;-80
2020/12/06 11:37:36;;;;;;;18.65;9.90;;;4.70;96.10;;;;;;6164685;23;20016;-79
2020/12/06 11:40:03;;;;;;;22.77;11.43;;;4.60;96.40;;;;;;6165056;23;20028;-79
2020/12/06 11:42:29;;;;;;;20.02;10.07;;;4.50;97.00;;;;;;6190835;23;19997;-83
2020/12/06 11:44:59;;;;;;;19.88;10.77;;;4.40;97.20;;;;;;6191675;23;20402;-79
2020/12/06 11:47:25;;;;;;;20.85;10.82;;;4.40;97.60;;;;;;6167231;23;20001;-80
2020/12/06 11:49:51;;;;;;;18.70;8.93;;;4.50;97.70;;;;;;6166081;23;20005;-82
2020/12/06 11:52:16;;;;;;;22.02;10.63;;;4.50;97.70;;;;;;6163784;23;20009;-81
2020/12/06 11:54:42;;;;;;;16.88;8.57;;;4.50;97.80;;;;;;6164422;23;20036;-79
2020/12/06 11:57:08;;;;;;;16.80;8.50;;;4.60;97.40;;;;;;6164344;23;20005;-81
2020/12/06 11:59:33;;;;;;;15.50;8.30;;;4.60;97.20;;;;;;6192034;23;20005;-80
2020/12/06 12:01:59;;;;;;;17.38;8.98;;;4.60;97.30;;;;;;6169152;23;20071;-82
2020/12/06 12:04:25;;;;;;;19.52;9.32;;;4.60;97.10;;;;;;6166646;23;20005;-82
2020/12/06 12:06:50;;;;;;;18.95;9.50;;;4.50;97.10;;;;;;6168244;23;20337;-82
2020/12/06 12:09:16;;;;;;;16.17;8.20;;;4.60;97.40;;;;;;6192505;23;20178;-83
2020/12/06 12:11:42;;;;;;;16.65;7.80;;;4.60;97.60;;;;;;6166366;23;20001;-83
2020/12/06 12:14:08;;;;;;;15.60;8.65;;;4.60;97.50;;;;;;6166638;23;20039;-82
2020/12/06 12:16:33;;;;;;;16.15;8.60;;;4.60;97.20;;;;;;6195235;23;20035;-80
2020/12/06 12:19:05;;;;;;;13.35;7.30;;;4.70;97.20;;;;;;6168222;23;20341;-83
2020/12/06 12:21:34;;;;;;;14.60;7.57;;;4.70;97.00;;;;;;6192135;23;20109;-80
2020/12/06 12:24:00;;;;;;;14.75;6.97;;;4.80;96.70;;;;;;6169892;23;20013;-81
2020/12/06 12:26:26;;;;;;;15.18;7.70;;;4.70;96.60;;;;;;6165585;23;20405;-83
2020/12/06 12:28:53;;;;;;;13.25;6.40;;;4.60;97.10;;;;;;6165349;23;20073;-82
2020/12/06 12:31:19;;;;;;;14.80;6.97;;;4.60;97.00;;;;;;6194326;23;20362;-81
2020/12/06 12:33:45;;;;;;;16.17;7.88;;;4.70;96.80;;;;;;6167916;23;20448;-82
2020/12/06 12:36:11;;;;;;;14.63;6.80;;;4.70;97.00;;;;;;6191302;23;20025;-82
2020/12/06 12:38:36;;;;;;;11.70;5.90;;;4.70;96.90;;;;;;6196616;23;20001;-83
2020/12/06 12:41:03;;;;;;;12.70;5.80;;;4.60;96.80;;;;;;6166453;23;20005;-81
2020/12/06 12:43:29;;;;;;;11.15;6.13;;;4.60;96.60;;;;;;6195095;23;20001;-86
2020/12/06 12:45:55;;;;;;;16.77;7.80;;;4.60;96.70;;;;;;6191312;23;20440;-83
2020/12/06 12:48:20;;;;;;;14.02;7.07;;;4.60;97.00;;;;;;6191588;23;20025;-82
2020/12/06 12:50:46;;;;;;;11.88;6.18;;;4.50;97.10;;;;;;6200702;23;20016;-82
2020/12/06 12:53:12;;;;;;;12.35;6.38;;;4.50;97.10;;;;;;6207276;23;19997;-82
2020/12/06 12:55:39;;;;;;;13.75;6.32;;;4.50;97.40;;;;;;6182813;23;20025;-84
2020/12/06 12:58:04;;;;;;;15.50;8.52;;;4.50;97.10;;;;;;6206676;23;20016;-83
2020/12/06 13:00:30;;;;;;;13.82;7.60;;;4.50;97.20;;;;;;6206665;23;20001;-83
2020/12/06 13:02:58;;;;;;;12.38;6.78;;;4.40;97.40;;;;;;6178359;23;20035;-84
2020/12/06 13:05:26;;;;;;;12.82;5.63;;;4.50;98.10;;;;;;6178932;23;20047;-84
2020/12/06 13:07:53;;;;;;;11.60;4.90;;;4.50;97.80;;;;;;6180634;23;20057;-82
2020/12/06 13:10:18;;;;;;;6.07;3.95;;;4.50;97.50;;;;;;6206638;23;20322;-82
2020/12/06 13:12:47;;;;;;;10.27;4.47;;;4.40;97.30;;;;;;6202346;23;20455;-82
2020/12/06 13:15:12;;;;;;;7.25;3.72;;;4.40;97.30;;;;;;6171320;23;20012;-81
2020/12/06 13:17:38;;;;;;;8.65;4.72;;;4.30;97.50;;;;;;6176645;23;20009;-82
2020/12/06 13:20:07;;;;;;;6.90;4.28;;;4.30;97.60;;;;;;6201405;23;20027;-81
2020/12/06 13:22:33;;;;;;;6.70;3.55;;;4.30;97.60;;;;;;6166416;23;20069;-81
2020/12/06 13:24:59;;;;;;;10.85;4.93;;;4.20;97.80;;;;;;6167279;23;20084;-81
2020/12/06 13:27:28;;;;;;;5.65;3.40;;;4.20;97.60;;;;;;6194204;23;20001;-80
2020/12/06 13:29:54;;;;;;;7.53;3.60;;;4.20;97.90;;;;;;6194677;23;20008;-80
2020/12/06 13:32:24;;;;;;;6.32;3.30;;;4.10;98.00;;;;;;6166790;23;20041;-81
2020/12/06 13:34:50;;;;;;;6.93;3.28;;;4.10;98.00;;;;;;6165727;23;20012;-81
2020/12/06 13:37:16;;;;;;;7.18;3.83;;;4.10;98.10;;;;;;6164180;23;20092;-80
2020/12/06 13:39:43;;;;;;;6.50;3.50;;;4.00;98.30;;;;;;6191534;23;20001;-82
2020/12/06 13:42:08;;;;;;;6.30;3.15;;;4.00;98.40;;;;;;6164145;23;20005;-82
2020/12/06 13:44:34;;;;;;;4.78;3.00;;;4.00;98.10;;;;;;6165242;23;20491;-83
2020/12/06 13:47:00;;;;;;;5.82;3.35;;;4.00;98.30;;;;;;6191004;23;20001;-80
2020/12/06 13:49:27;;;;;;;4.65;3.00;;;4.00;98.40;;;;;;6191025;23;20001;-81
2020/12/06 13:51:53;;;;;;;4.40;2.60;;;3.90;98.60;;;;;;6191350;23;20374;-81
2020/12/06 13:54:19;;;;;;;3.28;2.50;;;3.90;98.60;;;;;;6191361;23;20012;-81
2020/12/06 13:56:46;;;;;;;4.13;2.95;;;3.90;98.40;;;;;;6164367;23;20027;-83
2020/12/06 13:59:12;;;;;;;6.35;3.25;;;3.90;98.50;;;;;;6164427;23;20005;-81
2020/12/06 14:01:38;;;;;;;5.63;2.83;;;3.90;98.60;;;;;;6164670;23;20380;-81
2020/12/06 14:04:04;;;;;;;6.43;3.40;;;3.90;98.70;;;;;;6163825;23;20029;-81
2020/12/06 14:06:30;;;;;;;7.32;3.90;;;3.90;98.60;;;;;;6191367;23;20103;-81
2020/12/06 14:08:56;;;;;;;7.03;3.55;;;3.90;98.60;;;;;;6190782;23;19997;-81
2020/12/06 14:11:22;;;;;;;7.93;3.35;;;3.90;98.80;;;;;;6165485;23;20092;-79
2020/12/06 14:13:49;;;;;;;7.25;3.08;;;3.80;98.80;;;;;;6167349;23;20005;-80
2020/12/06 14:16:15;;;;;;;5.85;3.65;;;3.80;99.00;;;;;;6202987;23;20410;-79
2020/12/06 14:18:42;;;;;;;6.20;3.63;;;3.80;99.10;;;;;;6174291;23;20005;-80
2020/12/06 14:21:08;;;;;;;5.45;3.55;;;3.80;99.40;;;;;;6191398;23;20404;-79
2020/12/06 14:23:33;;;;;;;4.90;3.10;;;3.70;99.40;;;;;;6165505;23;20005;-80
2020/12/06 14:26:00;;;;;;;9.65;4.18;;;3.80;99.30;;;;;;6193714;23;20530;-81
2020/12/06 14:28:25;;;;;;;4.80;3.25;;;3.80;99.30;;;;;;6192356;23;20008;-80
2020/12/06 14:30:51;;;;;;;4.18;3.28;;;3.80;99.40;;;;;;6164887;23;20005;-82
2020/12/06 14:33:17;;;;;;;6.68;3.83;;;3.80;99.50;;;;;;6165382;23;20008;-79
2020/12/06 14:35:43;;;;;;;6.38;3.67;;;3.80;99.30;;;;;;6165092;23;20040;-80
2020/12/06 14:38:09;;;;;;;5.75;3.97;;;3.80;99.40;;;;;;6191973;23;20067;-79
2020/12/06 14:40:35;;;;;;;4.97;3.20;;;3.80;99.50;;;;;;6170859;23;20001;-81
2020/12/06 14:43:01;;;;;;;6.93;3.85;;;3.80;99.30;;;;;;6207257;23;20057;-85
2020/12/06 14:45:27;;;;;;;4.80;3.42;;;3.80;99.40;;;;;;6199291;23;20076;-82
2020/12/06 14:47:53;;;;;;;5.38;4.30;;;3.80;99.30;;;;;;6193598;23;19997;-80
2020/12/06 14:50:18;;;;;;;5.57;3.72;;;3.90;99.30;;;;;;6194810;23;20087;-81
2020/12/06 14:52:44;;;;;;;6.03;3.50;;;3.80;99.10;;;;;;6194389;23;20005;-79
2020/12/06 14:55:10;;;;;;;6.38;3.80;;;3.80;99.00;;;;;;6195035;23;20028;-82
2020/12/06 14:57:35;;;;;;;5.18;3.53;;;3.80;98.80;;;;;;6167712;23;20286;-80
2020/12/06 15:00:01;;;;;;;5.40;3.55;;;3.80;98.70;;;;;;6167799;23;20054;-81
2020/12/06 15:02:27;;;;;;;4.95;3.13;;;3.80;98.70;;;;;;6194509;23;20001;-82
2020/12/06 15:04:53;;;;;;;3.60;2.53;;;3.80;98.80;;;;;;6168466;23;20017;-82
2020/12/06 15:07:18;;;;;;;5.90;3.88;;;3.80;98.80;;;;;;6166298;23;20096;-82